aviador You're here:

LZPP Decoded Metar

PIESTANY in SLOVAKIA
Report Time2017-09-20 16:00:00
UTC Time2017-09-20 16:33:02
Flight Rules vfr VFR
Wind350° at 14 kt
W.Decomp.*RWY 01: 12.9 kt HW 5.5 kt LCW
W.Rank350° ranks 3
Current wind is above 350° avg. (7.4)
Visibility9999 m
Phenomena:N/A
Clouds:Scattered 043 Hf
Broken 080 Hf
Expected CloudBase > 2,000 ft AGL from Temp-Dew spread
Ceiling8,000 ft
Temp13°C (ISA -1)
Dew Point08°C (72% RH)
AAT7.5°C
QNH1015 hPa
Density Alt495 ft
Elevation528 ft
Report Wrong Elevation
Raw Report
LZPP 201600Z 35014KT 9999 SCT043 BKN080 13/08 Q1015=

Extra information for LZPP:More info

Metar Taf Metar & Taf Last 4 Metars F.Rules Stats Wind Profile Meteogram Temp Stats Airport Information Weather charts Add Link Nearby VenuesMetar ALERT Operation Metar Decoded Social comments